createdAt,value
2022-12-29T00:01:09.625Z,9.07
2022-12-29T00:03:39.080Z,13.95
2022-12-29T00:06:08.814Z,9.88
2022-12-29T00:08:44.165Z,10.33
2022-12-29T00:11:16.209Z,10.07
2022-12-29T00:14:04.290Z,7.80
2022-12-29T00:16:34.738Z,7.43
2022-12-29T00:21:51.749Z,7.85
2022-12-29T00:24:40.306Z,12.00
2022-12-29T00:27:31.866Z,7.25
2022-12-29T00:30:20.240Z,7.72
2022-12-29T00:33:07.366Z,7.47
2022-12-29T00:35:41.615Z,8.18
2022-12-29T00:38:30.155Z,5.15
2022-12-29T00:41:17.201Z,7.45
2022-12-29T00:44:05.162Z,7.47
2022-12-29T00:46:36.319Z,6.90
2022-12-29T00:49:23.865Z,4.63
2022-12-29T00:51:53.946Z,5.80
2022-12-29T00:56:54.120Z,4.85
2022-12-29T00:59:25.321Z,4.93
2022-12-29T01:01:57.123Z,7.25
2022-12-29T01:04:28.898Z,5.57
2022-12-29T01:06:58.250Z,9.90
2022-12-29T01:09:45.318Z,6.25
2022-12-29T01:12:14.858Z,6.10
2022-12-29T01:14:44.550Z,7.45
2022-12-29T01:17:15.405Z,4.88
2022-12-29T01:19:45.105Z,5.32
2022-12-29T01:22:14.433Z,7.33
2022-12-29T01:24:44.092Z,4.78
2022-12-29T01:27:15.915Z,6.40
2022-12-29T01:29:45.599Z,5.00
2022-12-29T01:32:16.295Z,6.00
2022-12-29T01:34:47.992Z,4.70
2022-12-29T01:37:17.414Z,4.68
2022-12-29T01:39:47.900Z,6.03
2022-12-29T01:42:21.152Z,4.65
2022-12-29T01:44:54.231Z,4.40
2022-12-29T01:47:31.653Z,4.50
2022-12-29T01:50:07.311Z,5.30
2022-12-29T01:52:41.447Z,3.85
2022-12-29T01:55:13.109Z,5.60
2022-12-29T01:57:47.746Z,3.72
2022-12-29T02:00:18.223Z,6.22
2022-12-29T02:02:55.000Z,3.83
2022-12-29T02:05:31.323Z,3.58
2022-12-29T02:08:01.790Z,3.95
2022-12-29T02:10:35.229Z,3.55
2022-12-29T02:13:04.910Z,3.03
2022-12-29T02:15:48.839Z,3.53
2022-12-29T02:18:39.252Z,3.33
2022-12-29T02:21:48.232Z,4.60
2022-12-29T02:24:46.119Z,3.85
2022-12-29T02:27:51.297Z,3.08
2022-12-29T02:30:47.848Z,2.83
2022-12-29T02:33:29.823Z,2.88
2022-12-29T02:36:09.787Z,2.65
2022-12-29T02:38:52.782Z,2.85
2022-12-29T02:41:32.383Z,3.90
2022-12-29T02:44:09.932Z,4.20
2022-12-29T02:46:47.040Z,4.60
2022-12-29T02:49:22.263Z,2.72
2022-12-29T02:51:58.258Z,2.97
2022-12-29T02:54:42.455Z,4.00
2022-12-29T02:57:16.789Z,5.47
2022-12-29T02:59:50.489Z,3.42
2022-12-29T03:02:47.587Z,3.60
2022-12-29T03:05:36.061Z,4.50
2022-12-29T03:08:14.479Z,4.45
2022-12-29T03:10:50.483Z,6.85
2022-12-29T03:13:46.886Z,5.07
2022-12-29T03:16:23.638Z,5.10
2022-12-29T03:19:02.400Z,4.63
2022-12-29T03:21:55.571Z,6.93
2022-12-29T03:24:29.342Z,5.30
2022-12-29T03:27:03.444Z,5.03
2022-12-29T03:29:43.692Z,6.13
2022-12-29T03:32:17.184Z,7.18
2022-12-29T03:34:51.023Z,5.68
2022-12-29T03:37:24.530Z,9.07
2022-12-29T03:39:54.077Z,6.95
2022-12-29T03:42:26.303Z,8.10
2022-12-29T03:44:58.392Z,6.78
2022-12-29T03:47:28.638Z,9.05
2022-12-29T03:49:59.536Z,6.38
2022-12-29T03:52:29.258Z,6.57
2022-12-29T03:54:58.709Z,12.75
2022-12-29T03:57:28.522Z,7.90
2022-12-29T04:00:05.013Z,10.32
2022-12-29T04:05:20.741Z,10.00
2022-12-29T04:07:52.144Z,10.70
2022-12-29T04:10:21.476Z,11.43
2022-12-29T04:12:54.791Z,9.48
2022-12-29T04:15:27.464Z,11.60
2022-12-29T04:17:57.533Z,11.52
2022-12-29T04:20:46.185Z,10.60
2022-12-29T04:23:16.111Z,12.13
2022-12-29T04:25:48.687Z,11.20
2022-12-29T04:28:19.234Z,10.32
2022-12-29T04:30:49.575Z,11.75
2022-12-29T04:33:23.431Z,11.48
2022-12-29T04:35:55.047Z,11.02
2022-12-29T04:38:26.545Z,12.07
2022-12-29T04:40:56.786Z,16.15
2022-12-29T04:43:27.261Z,19.05
2022-12-29T04:46:16.976Z,18.63
2022-12-29T04:49:14.180Z,17.15
2022-12-29T04:52:11.605Z,19.90
2022-12-29T04:54:41.953Z,16.08
2022-12-29T04:57:16.896Z,20.08
2022-12-29T04:59:52.495Z,18.15
2022-12-29T05:02:21.924Z,19.50
2022-12-29T05:04:53.538Z,15.73
2022-12-29T05:07:24.480Z,12.77
2022-12-29T05:09:54.701Z,12.60
2022-12-29T05:12:24.172Z,16.88
2022-12-29T05:15:01.603Z,15.93
2022-12-29T05:17:31.157Z,12.02
2022-12-29T05:20:01.816Z,12.63
2022-12-29T05:22:33.114Z,16.73
2022-12-29T05:25:03.071Z,14.65
2022-12-29T05:27:33.130Z,10.93
2022-12-29T05:30:20.890Z,11.77
2022-12-29T05:32:50.369Z,14.57
2022-12-29T05:35:21.243Z,13.80
2022-12-29T05:37:52.009Z,14.10
2022-12-29T05:40:21.908Z,13.77
2022-12-29T05:42:51.498Z,13.85
2022-12-29T05:45:39.317Z,11.40
2022-12-29T05:48:37.629Z,13.98
2022-12-29T05:51:22.916Z,13.18
2022-12-29T05:53:56.467Z,15.75
2022-12-29T05:56:26.501Z,13.10
2022-12-29T05:59:01.580Z,13.27
2022-12-29T06:01:31.554Z,13.30
2022-12-29T06:04:01.142Z,14.13
2022-12-29T06:06:31.172Z,10.63
2022-12-29T06:09:02.436Z,12.25
2022-12-29T06:11:32.472Z,13.77
2022-12-29T06:14:03.044Z,15.27
2022-12-29T06:16:32.996Z,15.50
2022-12-29T06:19:04.349Z,12.68
2022-12-29T06:21:34.631Z,11.10
2022-12-29T06:24:06.468Z,12.63
2022-12-29T06:26:38.119Z,13.65
2022-12-29T06:29:08.136Z,13.27
2022-12-29T06:34:08.685Z,13.57
2022-12-29T06:36:39.971Z,12.63
2022-12-29T06:39:10.820Z,13.00
2022-12-29T06:41:40.674Z,12.93
2022-12-29T06:44:24.859Z,15.30
2022-12-29T06:47:00.140Z,14.77
2022-12-29T06:49:29.512Z,14.13
2022-12-29T06:52:01.793Z,12.30
2022-12-29T06:54:32.666Z,14.52
2022-12-29T06:57:03.623Z,14.48
2022-12-29T06:59:33.010Z,16.10
2022-12-29T07:02:03.464Z,13.25
2022-12-29T07:04:33.118Z,14.40
2022-12-29T07:07:03.173Z,13.13
2022-12-29T07:09:34.132Z,12.13
2022-12-29T07:12:04.023Z,12.80
2022-12-29T07:14:39.038Z,12.02
2022-12-29T07:17:12.474Z,12.00
2022-12-29T07:19:41.926Z,15.23
2022-12-29T07:22:12.734Z,9.75
2022-12-29T07:24:44.273Z,11.35
2022-12-29T07:27:14.177Z,11.50
2022-12-29T07:29:43.635Z,12.20
2022-12-29T07:32:13.362Z,12.30
2022-12-29T07:34:42.887Z,16.50
2022-12-29T07:37:12.474Z,12.68
2022-12-29T07:39:43.397Z,12.87
2022-12-29T07:42:13.153Z,13.95
2022-12-29T07:44:47.497Z,10.05
2022-12-29T07:47:34.264Z,14.02
2022-12-29T07:50:03.834Z,12.88
2022-12-29T07:52:33.504Z,10.77
2022-12-29T07:55:04.374Z,16.45
2022-12-29T07:57:34.134Z,13.75
2022-12-29T08:00:04.708Z,10.30
2022-12-29T08:02:41.524Z,11.07
2022-12-29T08:05:11.419Z,16.20
2022-12-29T08:07:40.993Z,12.75
2022-12-29T08:10:12.266Z,11.77
2022-12-29T08:12:43.457Z,11.27
2022-12-29T08:15:13.963Z,13.05
2022-12-29T08:17:43.703Z,13.57
2022-12-29T08:20:13.220Z,15.83
2022-12-29T08:22:43.580Z,11.43
2022-12-29T08:25:14.424Z,11.48
2022-12-29T08:27:44.112Z,9.75
2022-12-29T08:30:14.645Z,10.73
2022-12-29T08:32:44.354Z,10.65
2022-12-29T08:35:13.792Z,14.50
2022-12-29T08:37:43.668Z,11.30
2022-12-29T08:40:15.124Z,10.63
2022-12-29T08:42:45.518Z,13.35
2022-12-29T08:45:14.911Z,11.40
2022-12-29T08:47:45.065Z,11.20
2022-12-29T08:50:14.463Z,13.50
2022-12-29T08:52:44.126Z,10.52
2022-12-29T08:55:14.884Z,12.98
2022-12-29T08:57:44.689Z,11.10
2022-12-29T09:00:21.435Z,9.25
2022-12-29T09:02:51.326Z,10.60
2022-12-29T09:05:20.813Z,10.85
2022-12-29T09:07:50.458Z,9.20
2022-12-29T09:10:21.661Z,9.90
2022-12-29T09:12:51.435Z,10.90
2022-12-29T09:15:20.871Z,10.27
2022-12-29T09:17:50.628Z,12.25
2022-12-29T09:20:21.439Z,9.67
2022-12-29T09:22:51.524Z,9.82
2022-12-29T09:25:25.227Z,12.68
2022-12-29T09:27:55.477Z,10.50
2022-12-29T09:30:25.828Z,10.60
2022-12-29T09:32:56.351Z,9.32
2022-12-29T09:35:25.640Z,9.10
2022-12-29T09:37:55.255Z,11.00
2022-12-29T09:40:32.175Z,11.98
2022-12-29T09:43:26.397Z,12.10
2022-12-29T09:46:05.324Z,8.40
2022-12-29T09:48:39.685Z,11.00
2022-12-29T09:51:15.902Z,10.10
2022-12-29T09:53:48.855Z,10.68
2022-12-29T09:56:23.251Z,9.43
2022-12-29T09:59:00.199Z,12.57
2022-12-29T10:01:39.275Z,16.52
2022-12-29T10:04:09.698Z,9.90
2022-12-29T10:07:11.354Z,9.25
2022-12-29T10:09:45.651Z,9.95
2022-12-29T10:12:30.237Z,8.80
2022-12-29T10:15:14.550Z,14.15
2022-12-29T10:17:50.928Z,10.80
2022-12-29T10:20:31.169Z,8.48
2022-12-29T10:23:22.257Z,12.02
2022-12-29T10:25:54.537Z,8.98
2022-12-29T10:28:26.612Z,8.88
2022-12-29T10:31:05.127Z,10.13
2022-12-29T10:33:41.700Z,8.52
2022-12-29T10:36:19.242Z,7.28
2022-12-29T10:38:56.193Z,8.50
2022-12-29T10:41:31.508Z,9.13
2022-12-29T10:44:03.450Z,9.73
2022-12-29T10:46:38.469Z,7.10
2022-12-29T10:49:21.181Z,9.13
2022-12-29T10:51:57.096Z,8.25
2022-12-29T10:54:33.665Z,6.30
2022-12-29T10:57:08.100Z,8.05
2022-12-29T10:59:39.934Z,8.95
2022-12-29T11:02:37.112Z,7.40
2022-12-29T11:05:12.529Z,6.47
2022-12-29T11:07:42.517Z,9.20
2022-12-29T11:10:30.703Z,8.15
2022-12-29T11:13:03.965Z,8.13
2022-12-29T11:15:44.216Z,10.18
2022-12-29T11:18:25.987Z,6.50
2022-12-29T11:21:00.329Z,8.23
2022-12-29T11:23:34.609Z,7.90
2022-12-29T11:26:30.300Z,7.97
2022-12-29T11:29:25.790Z,7.63
2022-12-29T11:32:00.200Z,7.43
2022-12-29T11:34:34.977Z,7.55
2022-12-29T11:37:08.979Z,9.43
2022-12-29T11:39:43.486Z,6.20
2022-12-29T11:42:18.923Z,8.13
2022-12-29T11:44:51.427Z,6.13
2022-12-29T11:47:31.298Z,11.75
2022-12-29T11:52:37.315Z,9.35
2022-12-29T11:55:18.823Z,7.47
2022-12-29T11:57:48.819Z,7.80
2022-12-29T12:02:58.800Z,7.15
2022-12-29T12:05:37.625Z,9.32
2022-12-29T12:08:20.691Z,9.17
2022-12-29T12:10:58.762Z,8.45
2022-12-29T12:13:34.013Z,8.57
2022-12-29T12:16:10.402Z,9.88
2022-12-29T12:18:50.989Z,10.02
2022-12-29T12:21:28.655Z,7.88
2022-12-29T12:24:28.548Z,6.80
2022-12-29T12:27:03.932Z,9.18
2022-12-29T12:29:42.251Z,9.02
2022-12-29T12:32:19.325Z,8.15
2022-12-29T12:34:51.921Z,7.68
2022-12-29T12:37:54.993Z,6.55
2022-12-29T12:41:02.753Z,7.65
2022-12-29T12:43:49.639Z,8.20
2022-12-29T12:46:43.153Z,6.47
2022-12-29T12:49:48.294Z,9.15
2022-12-29T12:52:29.857Z,9.65
2022-12-29T12:55:14.495Z,7.47
2022-12-29T12:57:54.176Z,7.88
2022-12-29T13:00:25.239Z,11.15
2022-12-29T13:03:08.049Z,8.82
2022-12-29T13:05:56.581Z,8.32
2022-12-29T13:08:48.730Z,8.90
2022-12-29T13:11:27.336Z,9.98
2022-12-29T13:14:15.018Z,9.77
2022-12-29T13:16:53.663Z,8.35
2022-12-29T13:19:28.617Z,11.90
2022-12-29T13:22:07.686Z,8.32
2022-12-29T13:24:49.538Z,7.45
2022-12-29T13:27:26.035Z,8.85
2022-12-29T13:30:03.842Z,11.10
2022-12-29T13:32:45.503Z,8.23
2022-12-29T13:35:24.912Z,7.53
2022-12-29T13:37:59.002Z,9.93
2022-12-29T13:40:35.379Z,7.35
2022-12-29T13:43:10.900Z,13.18
2022-12-29T13:46:03.254Z,13.00
2022-12-29T13:48:44.143Z,10.25
2022-12-29T13:51:28.521Z,7.75
2022-12-29T13:54:20.489Z,9.52
2022-12-29T13:56:58.216Z,7.13
2022-12-29T13:59:41.825Z,8.48
2022-12-29T14:02:22.204Z,10.70
2022-12-29T14:05:03.382Z,10.10
2022-12-29T14:07:40.329Z,9.75
2022-12-29T14:10:30.952Z,11.05
2022-12-29T14:15:43.490Z,10.25
2022-12-29T14:18:17.133Z,10.95
2022-12-29T14:20:56.771Z,8.00
2022-12-29T14:23:37.870Z,11.77
2022-12-29T14:26:16.295Z,7.93
2022-12-29T14:28:48.481Z,8.05
2022-12-29T14:31:42.937Z,10.07
2022-12-29T14:34:40.591Z,12.43
2022-12-29T14:37:30.854Z,10.15
2022-12-29T14:40:21.945Z,9.95
2022-12-29T14:42:59.483Z,10.15
2022-12-29T14:45:51.626Z,10.82
2022-12-29T14:48:49.801Z,10.25
2022-12-29T14:51:37.778Z,8.23
2022-12-29T14:54:54.072Z,11.98
2022-12-29T14:57:44.152Z,11.13
2022-12-29T15:00:35.223Z,9.70
2022-12-29T15:03:27.151Z,11.18
2022-12-29T15:06:09.739Z,13.90
2022-12-29T15:08:42.984Z,14.15
2022-12-29T15:11:17.464Z,11.10
2022-12-29T15:13:49.775Z,11.98
2022-12-29T15:16:27.422Z,12.20
2022-12-29T15:18:59.339Z,13.77
2022-12-29T15:21:33.256Z,16.02
2022-12-29T15:24:04.074Z,16.17
2022-12-29T15:26:41.141Z,13.75
2022-12-29T15:29:38.122Z,35.22
2022-12-29T15:32:21.615Z,28.77
2022-12-29T15:34:54.291Z,34.47
2022-12-29T15:37:26.625Z,20.15
2022-12-29T15:39:57.970Z,27.65
2022-12-29T15:42:52.770Z,15.70
2022-12-29T15:45:22.441Z,15.63
2022-12-29T15:47:57.362Z,61.50
2022-12-29T15:50:32.008Z,16.48
2022-12-29T15:53:02.687Z,24.58
2022-12-29T15:55:36.277Z,23.50
2022-12-29T15:58:19.754Z,24.88
2022-12-29T16:00:51.257Z,23.20
2022-12-29T16:03:21.840Z,19.10
2022-12-29T16:05:59.023Z,19.02
2022-12-29T16:08:34.845Z,17.67
2022-12-29T16:11:08.540Z,16.70
2022-12-29T16:13:42.283Z,23.80
2022-12-29T16:16:16.573Z,16.40
2022-12-29T16:18:51.853Z,19.80
2022-12-29T16:21:29.919Z,19.00
2022-12-29T16:24:05.236Z,13.52
2022-12-29T16:26:34.930Z,14.77
2022-12-29T16:29:08.701Z,16.90
2022-12-29T16:31:50.195Z,19.13
2022-12-29T16:34:27.137Z,15.57
2022-12-29T16:37:00.037Z,15.40
2022-12-29T16:39:47.574Z,11.25
2022-12-29T16:42:38.787Z,16.58
2022-12-29T16:45:54.384Z,17.95
2022-12-29T16:48:27.377Z,12.48
2022-12-29T16:51:05.640Z,11.35
2022-12-29T16:53:39.517Z,9.98
2022-12-29T16:56:16.834Z,8.18
2022-12-29T16:58:50.061Z,9.88
2022-12-29T17:01:20.865Z,7.60
2022-12-29T17:03:55.171Z,7.20
2022-12-29T17:06:25.535Z,9.68
2022-12-29T17:08:56.415Z,6.72
2022-12-29T17:11:51.278Z,7.43
2022-12-29T17:14:37.493Z,7.93
2022-12-29T17:17:12.558Z,9.15
2022-12-29T17:19:44.678Z,8.75
2022-12-29T17:22:17.580Z,10.80
2022-12-29T17:24:48.700Z,11.75
2022-12-29T17:27:25.937Z,11.48
2022-12-29T17:29:58.305Z,11.90
2022-12-29T17:32:28.334Z,10.98
2022-12-29T17:34:57.704Z,13.23
2022-12-29T17:37:34.551Z,9.32
2022-12-29T17:40:08.374Z,13.32
2022-12-29T17:42:45.716Z,18.08
2022-12-29T17:45:18.038Z,13.05
2022-12-29T17:47:47.734Z,9.40
2022-12-29T17:50:20.817Z,9.00
2022-12-29T17:52:55.321Z,8.90
2022-12-29T17:55:37.726Z,7.45
2022-12-29T17:58:20.252Z,6.95
2022-12-29T18:00:51.135Z,6.05
2022-12-29T18:03:23.484Z,6.18
2022-12-29T18:05:53.612Z,5.45
2022-12-29T18:08:23.531Z,5.47
2022-12-29T18:10:56.484Z,6.15
2022-12-29T18:13:33.698Z,4.80
2022-12-29T18:16:13.720Z,7.80
2022-12-29T18:18:43.597Z,5.22
2022-12-29T18:21:19.609Z,7.55
2022-12-29T18:23:49.822Z,4.97
2022-12-29T18:26:27.622Z,7.97
2022-12-29T18:28:57.867Z,5.75
2022-12-29T18:31:29.770Z,4.97
2022-12-29T18:34:01.614Z,5.80
2022-12-29T18:36:31.638Z,6.28
2022-12-29T18:39:01.027Z,7.65
2022-12-29T18:41:32.490Z,6.90
2022-12-29T18:44:02.094Z,7.72
2022-12-29T18:46:31.791Z,9.50
2022-12-29T18:49:01.264Z,6.20
2022-12-29T18:51:30.904Z,6.97
2022-12-29T18:54:03.092Z,6.67
2022-12-29T18:56:34.141Z,7.88
2022-12-29T18:59:03.556Z,8.10
2022-12-29T19:01:33.522Z,6.00
2022-12-29T19:04:03.083Z,6.85
2022-12-29T19:06:32.652Z,6.07
2022-12-29T19:09:02.290Z,6.20
2022-12-29T19:11:33.382Z,7.00
2022-12-29T19:14:03.281Z,7.13
2022-12-29T19:16:33.170Z,7.13
2022-12-29T19:19:10.210Z,7.35
2022-12-29T19:21:39.982Z,6.50
2022-12-29T19:24:09.575Z,6.27
2022-12-29T19:26:43.883Z,6.80
2022-12-29T19:29:16.823Z,6.80
2022-12-29T19:31:46.787Z,8.15
2022-12-29T19:34:17.103Z,9.30
2022-12-29T19:36:47.405Z,7.05
2022-12-29T19:39:17.114Z,7.43
2022-12-29T19:46:49.514Z,8.60
2022-12-29T19:49:19.131Z,10.23
2022-12-29T19:51:48.866Z,12.60
2022-12-29T19:54:18.146Z,9.00
2022-12-29T19:56:50.128Z,11.27
2022-12-29T19:59:20.237Z,10.77
2022-12-29T20:01:50.062Z,9.55
2022-12-29T20:04:19.575Z,10.00
2022-12-29T20:06:49.343Z,6.70
2022-12-29T20:09:19.002Z,12.93
2022-12-29T20:11:50.153Z,8.38
2022-12-29T20:14:19.730Z,7.75
2022-12-29T20:17:10.334Z,11.70
2022-12-29T20:19:41.674Z,11.32
2022-12-29T20:22:11.955Z,14.93
2022-12-29T20:27:21.390Z,12.68
2022-12-29T20:29:50.937Z,10.95
2022-12-29T20:32:25.295Z,13.25
2022-12-29T20:34:55.978Z,10.05
2022-12-29T20:37:25.646Z,7.03
2022-12-29T20:39:55.218Z,8.23
2022-12-29T20:42:29.084Z,4.53
2022-12-29T20:45:02.101Z,6.80
2022-12-29T20:47:34.323Z,9.38
2022-12-29T20:50:04.336Z,10.48
2022-12-29T20:55:04.561Z,10.00
2022-12-29T20:57:57.528Z,8.00
2022-12-29T21:00:26.023Z,4.25
2022-12-29T21:02:56.247Z,4.50
2022-12-29T21:05:27.595Z,8.30
2022-12-29T21:07:59.878Z,6.18
2022-12-29T21:10:29.282Z,5.63
2022-12-29T21:13:01.657Z,4.18
2022-12-29T21:15:33.234Z,4.45
2022-12-29T21:18:02.931Z,4.15
2022-12-29T21:20:32.697Z,4.67
2022-12-29T21:23:03.364Z,3.97
2022-12-29T21:25:38.081Z,4.13
2022-12-29T21:28:12.539Z,5.85
2022-12-29T21:30:43.284Z,5.20
2022-12-29T21:33:13.114Z,5.82
2022-12-29T21:35:43.351Z,4.70
2022-12-29T21:38:14.573Z,4.00
2022-12-29T21:40:44.782Z,4.00
2022-12-29T21:43:16.817Z,4.47
2022-12-29T21:45:51.270Z,3.92
2022-12-29T21:48:30.852Z,4.18
2022-12-29T21:51:37.936Z,6.53
2022-12-29T21:54:21.668Z,6.20
2022-12-29T21:56:52.308Z,5.13
2022-12-29T21:59:40.960Z,5.57
2022-12-29T22:02:37.302Z,4.15
2022-12-29T22:05:25.861Z,4.55
2022-12-29T22:08:12.878Z,6.18
2022-12-29T22:11:01.200Z,6.13
2022-12-29T22:13:33.637Z,4.55
2022-12-29T22:16:08.056Z,5.05
2022-12-29T22:18:38.090Z,4.28
2022-12-29T22:23:39.012Z,4.25
2022-12-29T22:26:12.021Z,5.20
2022-12-29T22:28:43.662Z,3.85
2022-12-29T22:31:28.340Z,3.85
2022-12-29T22:34:01.437Z,4.55
2022-12-29T22:36:34.307Z,3.33
2022-12-29T22:39:03.784Z,3.50
2022-12-29T22:41:33.657Z,3.80
2022-12-29T22:44:05.096Z,3.38
2022-12-29T22:46:36.689Z,4.72
2022-12-29T22:49:06.206Z,4.35
2022-12-29T22:51:36.132Z,4.63
2022-12-29T22:54:05.851Z,5.80
2022-12-29T22:56:42.016Z,5.25
2022-12-29T22:59:13.036Z,3.67
2022-12-29T23:01:44.979Z,4.50
2022-12-29T23:04:59.100Z,3.30
2022-12-29T23:07:04.687Z,3.08
2022-12-29T23:09:34.316Z,3.38
2022-12-29T23:12:03.998Z,4.22
2022-12-29T23:14:33.468Z,4.27
2022-12-29T23:17:04.599Z,4.13
2022-12-29T23:19:33.957Z,5.78
2022-12-29T23:22:03.588Z,4.20
2022-12-29T23:24:32.999Z,4.60
2022-12-29T23:27:02.795Z,5.20
2022-12-29T23:29:32.642Z,5.18
2022-12-29T23:32:05.536Z,3.22
2022-12-29T23:34:34.970Z,5.90
2022-12-29T23:37:05.050Z,3.50
2022-12-29T23:39:34.457Z,4.85
2022-12-29T23:42:04.039Z,5.90
2022-12-29T23:44:33.356Z,4.60
2022-12-29T23:47:04.481Z,3.03
2022-12-29T23:49:33.908Z,4.72
2022-12-29T23:52:03.490Z,3.10
2022-12-29T23:54:32.981Z,4.53
2022-12-29T23:57:02.586Z,6.47
2022-12-29T23:59:31.932Z,5.03
